EWR weather

Newark Liberty International Airport
Newark, New Jersey, United States

Public forecast

Using degrees Fahrenheit for public forecast. Weather courtesy of forecast.io.

METAR (pilot weather report)

Retrieved 2017/07/27 02:51 UTC (1 hour ago):

KEWR 270251Z 20006KT 10SM SCT250 19/15 A3014 RMK AO2 SLP206 T01940150 53000

TAF (pilot weather forecast)

Forecast is more than 12 hours old.

Retrieved 2017/07/26 00:33 UTC (1 day ago):

TAF KEWR 262330Z 2700/2806 13008KT P6SM FEW050 SCT250 FM270200 VRB03KT P6SM SCT250 FM271400 20006KT P6SM FEW040 SCT200 FM271700 16009KT P6SM BKN040